New Orleans NAS, Louisiana
Current Conditions -  °F | °C
As of 1:55 PM on Wednesday 26 Nov 2014 (Local Time) from KNBG Reporting Station
Clear Clear  
Wind Chill: 20°   Ceiling: Unl
Heat Index: 20°   Visibility: 10mi
Dew Point: -2°   Wind: 13mph
Humidity: 22%   Direction: 240°WSW
Pressure: 30.19"   Gusts: NA
Location:  29.83°N, 90.02°W
Report Text: KNBG 261955Z 24011KT 10SM CLR 20/M02 A3019 RMK AO2 SLP223 T02001022 $
Loading
Personal Weather Stations






























Interactive Weather Map New forecast layout! Learn more

10-Day Weather Forecast

Advertisements
Track Severe Weather on mobile